Terminal Aerodrome Forecast
Issued by NWS

Home | Current Version | Previous Version | Text Only | Print | Product List | Glossary On
Versions: 1 2 3 4 5 6 7 8 9 10 11 12 13 14
000
FTUS42 KMLB 241120
TAFISM
TAF
KISM 241120Z 2412/2512 21009KT P6SM FEW035 SCT110 OVC250
     FM241400 21014G23KT P6SM SCT030 BKN060
      TEMPO 2416/2419 VRB15G30KT 2SM TSRA BKN025CB
     FM241900 23018G25KT 5SM RA SCT020 OVC040
      TEMPO 2419/2422 3SM TSRA BKN020CB OVC030
     FM242200 23016G24KT P6SM SCT030 OVC060
      TEMPO 2422/2501 5SM RA BKN025 OVC050
     FM250200 21013KT P6SM SCT030 OVC050=

USA.gov is the U.S. government's official web portal to all federal, state and local government web resources and services.